Time;durP1;ratioP1;P1;durP2;ratioP2;P2;SDS_P1;SDS_P2;PMS_P1;PMS_P2;Temp;Humidity;BMP_temperature;BMP_pressure;BME280_temperature;BME280_humidity;BME280_pressure;Samples;Min_cycle;Max_cycle;Signal;HPM_P1;HPM_P2
2023/05/03 00:06:38;;;;;;;;;;;14.20;99.90;;;;;;4836053;29;19928;-80
2023/05/03 00:09:20;;;;;;;;;;;15.20;99.90;;;;;;4851778;29;19928;-80
2023/05/03 00:12:00;;;;;;;;;;;14.70;99.90;;;;;;4853376;29;19936;-80
2023/05/03 00:14:58;;;;;;;;;;;15.10;99.90;;;;;;4823264;29;19944;-80
2023/05/03 00:17:25;;;;;;;;;;;15.30;99.90;;;;;;4802328;29;19948;-80
2023/05/03 00:20:03;;;;;;;;;;;15.70;99.90;;;;;;4799141;23;19936;-80
2023/05/03 00:22:52;;;;;;;;;;;15.30;99.90;;;;;;4850861;29;19928;-80
2023/05/03 00:25:21;;;;;;;;;;;15.30;99.90;;;;;;4855660;29;19935;-80
2023/05/03 00:28:29;;;;;;;;;;;15.30;99.90;;;;;;4884373;23;19919;-80
2023/05/03 00:31:05;;;;;;;;;;;15.20;99.90;;;;;;4856327;29;19928;-80
2023/05/03 00:33:32;;;;;;;;;;;15.30;99.90;;;;;;4842412;29;20012;-80
2023/05/03 00:36:05;;;;;;;;;;;15.20;99.90;;;;;;4844531;29;19935;-80
2023/05/03 00:38:41;;;;;;;;;;;15.20;99.90;;;;;;4849705;29;19926;-80
2023/05/03 00:41:09;;;;;;;;;;;15.20;99.90;;;;;;4854909;29;19943;-80
2023/05/03 00:43:38;;;;;;;;;;;15.10;99.90;;;;;;4857462;24;19913;-80
2023/05/03 00:46:08;;;;;;;;;;;15.20;99.90;;;;;;4820063;29;19929;-80
2023/05/03 00:48:50;;;;;;;;;;;15.20;99.90;;;;;;4854918;29;19937;-80
2023/05/03 00:51:18;;;;;;;;;;;15.20;99.90;;;;;;4853975;29;20456;-80
2023/05/03 00:53:45;;;;;;;;;;;15.30;99.90;;;;;;4832521;29;19932;-80
2023/05/03 00:56:12;;;;;;;;;;;15.30;99.90;;;;;;4822207;29;19943;-79
2023/05/03 00:58:39;;;;;;;;;;;15.30;99.90;;;;;;4840241;29;20031;-80
2023/05/03 01:01:07;;;;;;;;;;;15.30;99.90;;;;;;4833075;29;19929;-80
2023/05/03 01:03:39;;;;;;;;;;;15.30;99.90;;;;;;4821600;29;19937;-80
2023/05/03 01:06:19;;;;;;;;;;;15.30;99.90;;;;;;4830743;29;19937;-80
2023/05/03 01:09:38;;;;;;;;;;;15.10;99.90;;;;;;4821961;29;19924;-80
2023/05/03 01:12:11;;;;;;;;;;;15.30;99.90;;;;;;4822065;29;19929;-80
2023/05/03 01:15:02;;;;;;;;;;;15.30;99.90;;;;;;4837611;29;19986;-80
2023/05/03 01:17:34;;;;;;;;;;;15.10;99.90;;;;;;4804689;29;19943;-80
2023/05/03 01:20:07;;;;;;;;;;;15.00;99.90;;;;;;4793723;29;20337;-80
2023/05/03 01:22:37;;;;;;;;;;;15.10;99.90;;;;;;4814256;29;19947;-80
2023/05/03 01:25:04;;;;;;;;;;;15.10;99.90;;;;;;4803323;29;20328;-80
2023/05/03 01:27:32;;;;;;;;;;;15.20;99.90;;;;;;4803836;29;20671;-80
2023/05/03 01:29:58;;;;;;;;;;;15.30;99.90;;;;;;4801912;29;19933;-80
2023/05/03 01:32:31;;;;;;;;;;;15.30;99.90;;;;;;4803466;29;19932;-80
2023/05/03 01:35:24;;;;;;;;;;;15.40;99.90;;;;;;4833795;29;20028;-79
2023/05/03 01:37:51;;;;;;;;;;;15.40;99.90;;;;;;4787758;29;22752;-79
2023/05/03 01:40:20;;;;;;;;;;;14.80;99.90;;;;;;4806348;29;22719;-80
2023/05/03 01:42:47;;;;;;;;;;;15.30;99.90;;;;;;4832627;29;19941;-80
2023/05/03 01:45:15;;;;;;;;;;;15.40;99.90;;;;;;4832500;29;20389;-80
2023/05/03 01:47:42;;;;;;;;;;;15.30;99.90;;;;;;4805757;29;19928;-80
2023/05/03 01:50:09;;;;;;;;;;;15.40;99.90;;;;;;4820794;29;19969;-80
2023/05/03 01:52:36;;;;;;;;;;;15.30;99.90;;;;;;4821273;29;19928;-80
2023/05/03 01:55:04;;;;;;;;;;;14.70;99.90;;;;;;4807802;29;19932;-80
2023/05/03 01:57:31;;;;;;;;;;;15.30;99.90;;;;;;4831980;29;20489;-80
2023/05/03 01:59:59;;;;;;;;;;;15.20;99.90;;;;;;4843901;29;19933;-80
2023/05/03 02:02:38;;;;;;;;;;;15.20;99.90;;;;;;4837288;29;19982;-80
2023/05/03 02:05:06;;;;;;;;;;;15.60;99.90;;;;;;4842579;29;19937;-80
2023/05/03 02:10:42;;;;;;;;;;;15.30;99.90;;;;;;4880228;29;19943;-80
2023/05/03 02:13:10;;;;;;;;;;;14.50;99.90;;;;;;4863204;29;20448;-80
2023/05/03 02:15:37;;;;;;;;;;;15.30;99.90;;;;;;4851247;29;20019;-80
2023/05/03 02:18:04;;;;;;;;;;;15.30;99.90;;;;;;4866568;29;20074;-80
2023/05/03 02:20:36;;;;;;;;;;;15.20;99.90;;;;;;4873209;29;19932;-80
2023/05/03 02:23:27;;;;;;;;;;;14.10;99.90;;;;;;4895190;23;19995;-79
2023/05/03 02:25:53;;;;;;;;;;;15.00;99.90;;;;;;4863961;29;22641;-79
2023/05/03 02:28:26;;;;;;;;;;;15.00;99.90;;;;;;4884132;29;19976;-79
2023/05/03 02:30:53;;;;;;;;;;;15.10;99.90;;;;;;4858955;29;20359;-80
2023/05/03 02:33:20;;;;;;;;;;;14.90;99.90;;;;;;4887594;29;20303;-79
2023/05/03 02:35:55;;;;;;;;;;;14.70;99.90;;;;;;4864003;29;20016;-79
2023/05/03 02:38:22;;;;;;;;;;;14.80;99.90;;;;;;4862880;29;19928;-79
2023/05/03 02:40:50;;;;;;;;;;;14.80;99.90;;;;;;4879531;29;19927;-79
2023/05/03 02:43:17;;;;;;;;;;;14.90;99.90;;;;;;4881448;29;19943;-79
2023/05/03 02:45:44;;;;;;;;;;;14.90;99.90;;;;;;4863708;29;20348;-79
2023/05/03 02:48:12;;;;;;;;;;;14.90;99.90;;;;;;4879500;29;19963;-79
2023/05/03 02:50:39;;;;;;;;;;;14.90;99.90;;;;;;4879502;29;19935;-79
2023/05/03 02:53:10;;;;;;;;;;;14.80;99.90;;;;;;4866005;29;19928;-80
2023/05/03 02:55:38;;;;;;;;;;;14.90;99.90;;;;;;4862794;29;19927;-79
2023/05/03 02:58:06;;;;;;;;;;;14.90;99.90;;;;;;4859994;29;19928;-79
2023/05/03 03:00:33;;;;;;;;;;;15.00;99.90;;;;;;4865080;29;19935;-79
2023/05/03 03:03:00;;;;;;;;;;;15.00;99.90;;;;;;4864492;29;20387;-79
2023/05/03 03:05:27;;;;;;;;;;;15.00;99.90;;;;;;4873950;29;19971;-79
2023/05/03 03:07:55;;;;;;;;;;;15.00;99.90;;;;;;4874672;29;20015;-79
2023/05/03 03:10:23;;;;;;;;;;;15.00;99.90;;;;;;4861839;29;19932;-78
2023/05/03 03:12:50;;;;;;;;;;;15.00;99.90;;;;;;4877933;29;19931;-79
2023/05/03 03:15:30;;;;;;;;;;;15.00;99.90;;;;;;4854594;29;19927;-79
2023/05/03 03:17:57;;;;;;;;;;;14.90;99.90;;;;;;4866183;29;20392;-79
2023/05/03 03:20:25;;;;;;;;;;;14.90;99.90;;;;;;4873252;29;20902;-79
2023/05/03 03:22:52;;;;;;;;;;;14.90;99.90;;;;;;4878489;29;19943;-79
2023/05/03 03:25:19;;;;;;;;;;;14.80;99.90;;;;;;4876705;29;19932;-79
2023/05/03 03:27:46;;;;;;;;;;;14.90;99.90;;;;;;4859715;29;19935;-79
2023/05/03 03:30:14;;;;;;;;;;;14.90;99.90;;;;;;4855448;29;19981;-79
2023/05/03 03:32:52;;;;;;;;;;;14.90;99.90;;;;;;4869431;29;20459;-79
2023/05/03 03:35:27;;;;;;;;;;;14.90;99.90;;;;;;4876882;29;20022;-79
2023/05/03 03:37:54;;;;;;;;;;;14.90;99.90;;;;;;4878962;29;19942;-79
2023/05/03 03:40:22;;;;;;;;;;;14.90;99.90;;;;;;4873932;29;20057;-79
2023/05/03 03:42:51;;;;;;;;;;;14.90;99.90;;;;;;4861412;29;19967;-79
2023/05/03 03:45:18;;;;;;;;;;;15.00;99.90;;;;;;4867272;29;19942;-79
2023/05/03 03:47:45;;;;;;;;;;;15.00;99.90;;;;;;4869254;29;19942;-79
2023/05/03 03:50:13;;;;;;;;;;;15.00;99.90;;;;;;4854151;29;19970;-78
2023/05/03 03:52:40;;;;;;;;;;;15.00;99.90;;;;;;4872239;29;19936;-79
2023/05/03 03:55:07;;;;;;;;;;;15.00;99.90;;;;;;4873620;29;19928;-79
2023/05/03 03:57:34;;;;;;;;;;;15.00;99.90;;;;;;4847149;29;20030;-79
2023/05/03 04:00:09;;;;;;;;;;;15.00;99.90;;;;;;4851496;29;19936;-79
2023/05/03 04:02:42;;;;;;;;;;;15.00;99.90;;;;;;4872518;29;22734;-78
2023/05/03 04:05:16;;;;;;;;;;;15.00;99.90;;;;;;4864089;29;19954;-78
2023/05/03 04:07:44;;;;;;;;;;;15.10;99.90;;;;;;4876561;29;19939;-78
2023/05/03 04:10:13;;;;;;;;;;;15.10;99.90;;;;;;4867081;29;19935;-78
2023/05/03 04:12:40;;;;;;;;;;;15.10;99.90;;;;;;4859763;29;19931;-78
2023/05/03 04:15:07;;;;;;;;;;;15.10;99.90;;;;;;4865816;29;19976;-79
2023/05/03 04:17:36;;;;;;;;;;;15.10;99.90;;;;;;4875117;29;19928;-79
2023/05/03 04:20:06;;;;;;;;;;;15.10;99.90;;;;;;4872278;29;22703;-79
2023/05/03 04:22:33;;;;;;;;;;;15.10;99.90;;;;;;4873862;29;20019;-79
2023/05/03 04:25:00;;;;;;;;;;;15.10;99.90;;;;;;4875124;29;20027;-79
2023/05/03 04:27:29;;;;;;;;;;;15.10;99.90;;;;;;4878627;29;19979;-78
2023/05/03 04:29:57;;;;;;;;;;;15.10;99.90;;;;;;4867618;29;19958;-79
2023/05/03 04:32:25;;;;;;;;;;;15.10;99.90;;;;;;4883138;29;20023;-79
2023/05/03 04:34:54;;;;;;;;;;;15.10;99.90;;;;;;4884696;29;19935;-79
2023/05/03 04:37:23;;;;;;;;;;;15.20;99.90;;;;;;4872321;29;19936;-79
2023/05/03 04:39:50;;;;;;;;;;;15.10;99.90;;;;;;4855781;29;20003;-79
2023/05/03 04:42:17;;;;;;;;;;;15.10;99.90;;;;;;4876988;29;19927;-78
2023/05/03 04:44:44;;;;;;;;;;;15.20;99.90;;;;;;4873044;29;20026;-78
2023/05/03 04:47:11;;;;;;;;;;;15.10;99.90;;;;;;4852484;29;20721;-78
2023/05/03 04:49:40;;;;;;;;;;;15.20;99.90;;;;;;4860320;29;19928;-78
2023/05/03 04:52:09;;;;;;;;;;;15.20;99.90;;;;;;4867524;29;20023;-78
2023/05/03 04:54:36;;;;;;;;;;;15.20;99.90;;;;;;4873239;29;20471;-79
2023/05/03 04:57:03;;;;;;;;;;;15.20;99.90;;;;;;4883229;29;19943;-79
2023/05/03 04:59:30;;;;;;;;;;;15.20;99.90;;;;;;4871091;29;19984;-79
2023/05/03 05:01:57;;;;;;;;;;;15.30;99.90;;;;;;4882227;29;20055;-79
2023/05/03 05:04:25;;;;;;;;;;;15.30;99.90;;;;;;4856579;29;19928;-79
2023/05/03 05:06:52;;;;;;;;;;;15.40;99.90;;;;;;4872998;29;19931;-79
2023/05/03 05:09:29;;;;;;;;;;;15.30;99.90;;;;;;4859090;29;20387;-79
2023/05/03 05:11:58;;;;;;;;;;;15.30;99.90;;;;;;4867055;29;22600;-79
2023/05/03 05:14:32;;;;;;;;;;;15.40;99.90;;;;;;4869647;29;19942;-78
2023/05/03 05:16:59;;;;;;;;;;;15.50;99.90;;;;;;4880118;29;20113;-78
2023/05/03 05:19:27;;;;;;;;;;;15.50;99.90;;;;;;4871077;29;19956;-78
2023/05/03 05:21:54;;;;;;;;;;;15.60;99.90;;;;;;4857703;29;19928;-78
2023/05/03 05:24:25;;;;;;;;;;;15.60;99.90;;;;;;4853099;29;19942;-78
2023/05/03 05:26:52;;;;;;;;;;;15.60;99.90;;;;;;4874597;29;19937;-78
2023/05/03 05:29:19;;;;;;;;;;;15.70;99.90;;;;;;4876335;29;20352;-78
2023/05/03 05:31:46;;;;;;;;;;;15.80;99.90;;;;;;4859770;29;19934;-78
2023/05/03 05:34:14;;;;;;;;;;;16.00;99.90;;;;;;4874025;29;19933;-78
2023/05/03 05:36:41;;;;;;;;;;;15.90;99.90;;;;;;4866553;29;20322;-79
2023/05/03 05:39:08;;;;;;;;;;;16.10;99.90;;;;;;4858273;29;20387;-78
2023/05/03 05:41:36;;;;;;;;;;;16.10;99.90;;;;;;4872654;29;19940;-79
2023/05/03 05:44:03;;;;;;;;;;;16.10;99.90;;;;;;4878573;29;19939;-78
2023/05/03 05:46:30;;;;;;;;;;;16.20;99.90;;;;;;4859415;29;19928;-78
2023/05/03 05:48:58;;;;;;;;;;;16.40;99.90;;;;;;4852812;29;20444;-78
2023/05/03 05:51:26;;;;;;;;;;;16.50;99.90;;;;;;4850591;29;19932;-78
2023/05/03 05:53:54;;;;;;;;;;;16.50;99.90;;;;;;4862072;29;19963;-79
2023/05/03 05:56:22;;;;;;;;;;;16.50;99.90;;;;;;4849614;29;19942;-78
2023/05/03 05:58:49;;;;;;;;;;;16.60;99.90;;;;;;4842739;29;21614;-78
2023/05/03 06:01:16;;;;;;;;;;;16.70;99.90;;;;;;4818281;29;19942;-78
2023/05/03 06:03:43;;;;;;;;;;;16.80;99.90;;;;;;4829320;29;19958;-78
2023/05/03 06:06:10;;;;;;;;;;;16.90;99.90;;;;;;4823743;29;20384;-78
2023/05/03 06:08:37;;;;;;;;;;;16.90;99.90;;;;;;4845794;29;19942;-78
2023/05/03 06:11:04;;;;;;;;;;;16.80;99.90;;;;;;4880840;29;19942;-79
2023/05/03 06:13:33;;;;;;;;;;;16.80;99.90;;;;;;4855327;29;20353;-78
2023/05/03 06:16:01;;;;;;;;;;;16.80;99.90;;;;;;4858753;29;19934;-78
2023/05/03 06:18:28;;;;;;;;;;;16.80;99.90;;;;;;4859951;29;20026;-78
2023/05/03 06:20:55;;;;;;;;;;;16.80;99.90;;;;;;4875657;29;19938;-79
2023/05/03 06:23:22;;;;;;;;;;;16.90;99.90;;;;;;4872872;29;19955;-78
2023/05/03 06:25:51;;;;;;;;;;;17.00;99.90;;;;;;4874254;29;19971;-78
2023/05/03 06:28:18;;;;;;;;;;;17.10;99.90;;;;;;4856575;29;19957;-78
2023/05/03 06:30:49;;;;;;;;;;;17.20;99.90;;;;;;4882359;29;19943;-79
2023/05/03 06:33:16;;;;;;;;;;;17.30;99.90;;;;;;4882422;29;22595;-78
2023/05/03 06:35:46;;;;;;;;;;;17.30;99.90;;;;;;4881486;29;19936;-78
2023/05/03 06:38:16;;;;;;;;;;;17.30;99.90;;;;;;4849991;29;19943;-78
2023/05/03 06:40:44;;;;;;;;;;;17.40;99.90;;;;;;4860262;29;20026;-78
2023/05/03 06:43:11;;;;;;;;;;;17.50;99.90;;;;;;4864645;29;22719;-78
2023/05/03 06:46:04;;;;;;;;;;;17.70;99.70;;;;;;4841556;29;19971;-78
2023/05/03 06:48:31;;;;;;;;;;;17.90;99.10;;;;;;4833355;29;20048;-78
2023/05/03 06:50:58;;;;;;;;;;;17.80;98.20;;;;;;4834704;29;19957;-78
2023/05/03 06:53:26;;;;;;;;;;;17.70;98.30;;;;;;4834148;29;19947;-78
2023/05/03 06:55:53;;;;;;;;;;;17.80;98.40;;;;;;4813469;29;20007;-78
2023/05/03 06:58:20;;;;;;;;;;;17.80;97.40;;;;;;4823372;29;19982;-78
2023/05/03 07:00:50;;;;;;;;;;;17.90;98.20;;;;;;4834012;29;20122;-78
2023/05/03 07:03:17;;;;;;;;;;;18.00;98.00;;;;;;4825351;29;19936;-78
2023/05/03 07:05:45;;;;;;;;;;;17.90;97.30;;;;;;4830571;29;19935;-78
2023/05/03 07:08:12;;;;;;;;;;;18.00;97.40;;;;;;4841780;29;19928;-77
2023/05/03 07:10:40;;;;;;;;;;;18.10;97.60;;;;;;4838014;29;19928;-78
2023/05/03 07:13:07;;;;;;;;;;;18.10;96.80;;;;;;4846317;29;19942;-78
2023/05/03 07:15:34;;;;;;;;;;;18.10;96.10;;;;;;4841597;29;19936;-78
2023/05/03 07:18:02;;;;;;;;;;;18.40;95.20;;;;;;4827815;29;20454;-77
2023/05/03 07:20:29;;;;;;;;;;;18.50;95.10;;;;;;4832718;29;19942;-78
2023/05/03 07:22:57;;;;;;;;;;;18.60;93.80;;;;;;4810358;29;19986;-78
2023/05/03 07:25:24;;;;;;;;;;;19.00;93.60;;;;;;4839182;29;20291;-78
2023/05/03 07:27:51;;;;;;;;;;;19.00;95.10;;;;;;4828490;29;19936;-78
2023/05/03 07:30:18;;;;;;;;;;;19.00;93.00;;;;;;4815172;29;19999;-78
2023/05/03 07:32:45;;;;;;;;;;;18.90;92.90;;;;;;4837325;29;19936;-78
2023/05/03 07:35:12;;;;;;;;;;;18.80;93.30;;;;;;4834180;29;19943;-77
2023/05/03 07:37:39;;;;;;;;;;;19.30;93.00;;;;;;4824899;29;19936;-77
2023/05/03 07:40:06;;;;;;;;;;;19.30;92.90;;;;;;4825377;29;19944;-77
2023/05/03 07:42:33;;;;;;;;;;;19.40;93.90;;;;;;4838628;29;19936;-78
2023/05/03 07:45:01;;;;;;;;;;;19.70;92.90;;;;;;4813841;29;19936;-77
2023/05/03 07:47:27;;;;;;;;;;;19.70;92.40;;;;;;4836623;29;19944;-77
2023/05/03 07:49:55;;;;;;;;;;;19.80;91.60;;;;;;4828922;29;20156;-78
2023/05/03 07:52:22;;;;;;;;;;;19.60;91.30;;;;;;4826023;29;20585;-77
2023/05/03 07:54:49;;;;;;;;;;;19.50;91.40;;;;;;4836220;29;19936;-78
2023/05/03 07:57:16;;;;;;;;;;;19.30;90.40;;;;;;4819853;29;20030;-78
2023/05/03 07:59:43;;;;;;;;;;;19.40;92.30;;;;;;4829842;29;19943;-78
2023/05/03 08:02:10;;;;;;;;;;;19.40;90.80;;;;;;4836352;29;19928;-78
2023/05/03 08:04:37;;;;;;;;;;;19.40;91.00;;;;;;4837022;29;20019;-78
2023/05/03 08:07:04;;;;;;;;;;;19.40;90.50;;;;;;4837639;29;20604;-78
2023/05/03 08:09:33;;;;;;;;;;;19.30;91.00;;;;;;4821036;29;20457;-77
2023/05/03 08:12:01;;;;;;;;;;;19.50;91.20;;;;;;4838329;29;19943;-78
2023/05/03 08:14:28;;;;;;;;;;;19.70;90.80;;;;;;4810300;29;19936;-79
2023/05/03 08:16:55;;;;;;;;;;;19.70;90.90;;;;;;4835552;29;20603;-78
2023/05/03 08:19:22;;;;;;;;;;;19.70;90.00;;;;;;4827471;29;19936;-77
2023/05/03 08:21:51;;;;;;;;;;;19.70;90.20;;;;;;4833003;29;20015;-78
2023/05/03 08:24:18;;;;;;;;;;;19.70;90.30;;;;;;4819543;29;19936;-77
2023/05/03 08:26:47;;;;;;;;;;;19.70;88.90;;;;;;4820906;29;19936;-78
2023/05/03 08:29:14;;;;;;;;;;;19.90;89.20;;;;;;4832474;29;20027;-79
2023/05/03 08:31:42;;;;;;;;;;;19.90;89.40;;;;;;4836139;29;19963;-77
2023/05/03 08:34:09;;;;;;;;;;;19.50;87.70;;;;;;4829262;29;19928;-77
2023/05/03 08:36:39;;;;;;;;;;;19.60;88.20;;;;;;4828786;29;22632;-78
2023/05/03 08:39:06;;;;;;;;;;;19.80;88.80;;;;;;4813196;29;19935;-78
2023/05/03 08:41:33;;;;;;;;;;;20.00;88.20;;;;;;4824934;29;19944;-78
2023/05/03 08:44:02;;;;;;;;;;;19.80;86.90;;;;;;4836609;29;20592;-78
2023/05/03 08:46:29;;;;;;;;;;;19.80;88.20;;;;;;4837168;29;20075;-78
2023/05/03 08:48:57;;;;;;;;;;;20.00;88.30;;;;;;4822314;29;20450;-78
2023/05/03 08:51:26;;;;;;;;;;;20.20;87.10;;;;;;4839477;29;19936;-77
2023/05/03 08:53:53;;;;;;;;;;;20.40;84.50;;;;;;4821078;29;19956;-77
2023/05/03 08:56:38;;;;;;;;;;;20.40;82.90;;;;;;4810934;29;20364;-78
2023/05/03 08:59:08;;;;;;;;;;;20.40;80.40;;;;;;4848312;29;19936;-78
2023/05/03 09:01:35;;;;;;;;;;;20.30;80.30;;;;;;4854312;29;19934;-79
2023/05/03 09:04:03;;;;;;;;;;;20.40;80.80;;;;;;4832104;29;19943;-77
2023/05/03 09:06:32;;;;;;;;;;;20.40;79.50;;;;;;4846564;29;19938;-78
2023/05/03 09:08:59;;;;;;;;;;;20.50;79.50;;;;;;4840758;29;19936;-77
2023/05/03 09:11:28;;;;;;;;;;;20.60;79.60;;;;;;4836117;29;19939;-77
2023/05/03 09:14:11;;;;;;;;;;;20.70;78.10;;;;;;4862388;29;19935;-78
2023/05/03 09:16:39;;;;;;;;;;;20.60;76.80;;;;;;4836554;29;19940;-77
2023/05/03 09:19:10;;;;;;;;;;;20.70;76.20;;;;;;4839622;29;20463;-77
2023/05/03 09:21:38;;;;;;;;;;;20.70;75.40;;;;;;4856765;29;19936;-78
2023/05/03 09:24:15;;;;;;;;;;;20.70;75.20;;;;;;4816564;29;19943;-78
2023/05/03 09:26:42;;;;;;;;;;;20.70;75.10;;;;;;4842548;29;19943;-77
2023/05/03 09:29:09;;;;;;;;;;;20.70;74.60;;;;;;4827052;29;19936;-76
2023/05/03 09:31:36;;;;;;;;;;;20.70;75.30;;;;;;4839612;29;19943;-78
2023/05/03 09:34:20;;;;;;;;;;;20.70;75.20;;;;;;4827975;29;19935;-78
2023/05/03 09:36:47;;;;;;;;;;;20.70;75.20;;;;;;4838255;29;19932;-77
2023/05/03 09:39:18;;;;;;;;;;;21.00;77.00;;;;;;4821274;29;19948;-78
2023/05/03 09:41:45;;;;;;;;;;;20.90;74.00;;;;;;4853750;29;19943;-76
2023/05/03 09:44:12;;;;;;;;;;;21.10;75.20;;;;;;4841773;29;19935;-78
2023/05/03 09:46:59;;;;;;;;;;;21.20;74.10;;;;;;4823202;29;19939;-78
2023/05/03 09:49:26;;;;;;;;;;;21.30;74.60;;;;;;4830275;29;19936;-78
2023/05/03 09:51:54;;;;;;;;;;;21.40;74.20;;;;;;4816787;29;19942;-78
2023/05/03 09:54:21;;;;;;;;;;;21.30;74.00;;;;;;4824402;29;19936;-76
2023/05/03 09:56:51;;;;;;;;;;;21.30;75.40;;;;;;4837712;29;19972;-79
2023/05/03 09:59:19;;;;;;;;;;;21.20;74.50;;;;;;4813534;29;20015;-77
2023/05/03 10:01:46;;;;;;;;;;;21.10;75.20;;;;;;4825480;29;20898;-77
2023/05/03 10:04:16;;;;;;;;;;;21.10;76.50;;;;;;4823922;29;20839;-77
2023/05/03 10:06:44;;;;;;;;;;;21.10;75.60;;;;;;4855285;29;20585;-78
2023/05/03 10:09:15;;;;;;;;;;;21.10;75.80;;;;;;4822814;29;20392;-78
2023/05/03 10:11:46;;;;;;;;;;;21.00;73.70;;;;;;4836437;29;19935;-77
2023/05/03 10:14:13;;;;;;;;;;;20.80;74.90;;;;;;4825689;29;20325;-77
2023/05/03 10:16:43;;;;;;;;;;;20.70;74.20;;;;;;4812013;29;19932;-77
2023/05/03 10:19:25;;;;;;;;;;;20.80;76.30;;;;;;4829583;29;19935;-78
2023/05/03 10:22:01;;;;;;;;;;;20.90;75.30;;;;;;4853841;29;20400;-78
2023/05/03 10:24:28;;;;;;;;;;;20.80;75.00;;;;;;4859708;29;19941;-79
2023/05/03 10:26:56;;;;;;;;;;;20.80;75.50;;;;;;4817419;29;19936;-78
2023/05/03 10:29:36;;;;;;;;;;;20.80;74.30;;;;;;4841197;29;19936;-78
2023/05/03 10:32:04;;;;;;;;;;;20.90;74.20;;;;;;4828825;29;19935;-78
2023/05/03 10:34:38;;;;;;;;;;;21.00;74.30;;;;;;4818454;29;19935;-78
2023/05/03 10:37:09;;;;;;;;;;;21.10;74.30;;;;;;4826696;29;20338;-78
2023/05/03 10:39:36;;;;;;;;;;;20.90;74.80;;;;;;4858145;29;19942;-78
2023/05/03 10:42:06;;;;;;;;;;;20.90;74.60;;;;;;4830395;29;20445;-79
2023/05/03 10:44:50;;;;;;;;;;;20.90;75.30;;;;;;4851715;29;19936;-77
2023/05/03 10:47:18;;;;;;;;;;;20.80;75.00;;;;;;4813398;29;20479;-78
2023/05/03 10:49:45;;;;;;;;;;;20.90;74.90;;;;;;4850905;29;20303;-78
2023/05/03 10:52:31;;;;;;;;;;;21.00;74.70;;;;;;4834180;29;19978;-79
2023/05/03 10:54:58;;;;;;;;;;;21.10;74.30;;;;;;4823679;29;19971;-78
2023/05/03 10:57:30;;;;;;;;;;;21.20;75.10;;;;;;4831012;29;19997;-78
2023/05/03 10:59:57;;;;;;;;;;;21.30;74.20;;;;;;4827515;29;20599;-78
2023/05/03 11:02:28;;;;;;;;;;;21.30;74.30;;;;;;4856770;29;19990;-79
2023/05/03 11:04:58;;;;;;;;;;;21.20;73.20;;;;;;4828536;29;19931;-78
2023/05/03 11:07:26;;;;;;;;;;;21.20;72.90;;;;;;4854423;29;20048;-77
2023/05/03 11:09:53;;;;;;;;;;;20.90;73.20;;;;;;4844905;29;19932;-78
2023/05/03 11:12:20;;;;;;;;;;;20.80;73.80;;;;;;4842223;29;20146;-78
2023/05/03 11:14:49;;;;;;;;;;;20.70;73.30;;;;;;4827079;29;20888;-78
2023/05/03 11:17:16;;;;;;;;;;;20.60;74.30;;;;;;4809503;29;20062;-78
2023/05/03 11:19:43;;;;;;;;;;;20.60;74.50;;;;;;4838587;29;19986;-78
2023/05/03 11:22:11;;;;;;;;;;;20.60;74.60;;;;;;4823562;29;19938;-77
2023/05/03 11:24:38;;;;;;;;;;;20.80;75.20;;;;;;4830889;29;19935;-78
2023/05/03 11:27:05;;;;;;;;;;;20.80;74.50;;;;;;4815165;29;20918;-78
2023/05/03 11:29:34;;;;;;;;;;;20.70;74.90;;;;;;4838367;29;19985;-80
2023/05/03 11:32:01;;;;;;;;;;;20.80;74.80;;;;;;4858666;29;19928;-81
2023/05/03 11:34:30;;;;;;;;;;;20.80;74.70;;;;;;4829353;29;20410;-80
2023/05/03 11:36:57;;;;;;;;;;;20.90;75.00;;;;;;4849672;29;19932;-80
2023/05/03 11:39:24;;;;;;;;;;;20.90;74.50;;;;;;4839452;29;19935;-80
2023/05/03 11:42:02;;;;;;;;;;;20.90;74.20;;;;;;4829853;29;20618;-81
2023/05/03 11:44:29;;;;;;;;;;;20.80;74.10;;;;;;4827734;29;19943;-80
2023/05/03 11:46:56;;;;;;;;;;;20.70;74.30;;;;;;4849186;29;20600;-80
2023/05/03 11:49:23;;;;;;;;;;;20.50;73.80;;;;;;4834644;29;20228;-79
2023/05/03 11:51:51;;;;;;;;;;;20.50;74.30;;;;;;4824600;29;19942;-80
2023/05/03 11:54:21;;;;;;;;;;;20.40;74.30;;;;;;4853364;29;19935;-79
2023/05/03 11:56:57;;;;;;;;;;;20.50;74.70;;;;;;4840020;29;20420;-79
2023/05/03 11:59:38;;;;;;;;;;;20.50;74.30;;;;;;4838956;29;19942;-80
2023/05/03 12:02:08;;;;;;;;;;;20.50;75.30;;;;;;4875473;29;19942;-80
2023/05/03 12:04:39;;;;;;;;;;;20.60;75.80;;;;;;4826039;29;20051;-80
2023/05/03 12:07:12;;;;;;;;;;;20.40;74.50;;;;;;4850241;29;19971;-79
2023/05/03 12:09:43;;;;;;;;;;;20.40;75.40;;;;;;4829080;29;19936;-80
2023/05/03 12:12:18;;;;;;;;;;;20.30;75.50;;;;;;4840342;29;19951;-78
2023/05/03 12:15:02;;;;;;;;;;;20.20;76.20;;;;;;4838015;29;19936;-80
2023/05/03 12:17:34;;;;;;;;;;;20.20;76.30;;;;;;4844843;29;21021;-80
2023/05/03 12:20:17;;;;;;;;;;;20.10;76.90;;;;;;4835561;29;22222;-79
2023/05/03 12:23:06;;;;;;;;;;;20.10;77.70;;;;;;4833761;29;20083;-80
2023/05/03 12:25:36;;;;;;;;;;;20.00;77.80;;;;;;4832379;29;20070;-79
2023/05/03 12:28:07;;;;;;;;;;;19.90;78.90;;;;;;4813943;29;19936;-80
2023/05/03 12:30:37;;;;;;;;;;;19.90;78.70;;;;;;4844592;29;22249;-79
2023/05/03 12:33:06;;;;;;;;;;;19.70;79.30;;;;;;4821587;29;19940;-80
2023/05/03 12:35:36;;;;;;;;;;;19.70;79.80;;;;;;4834741;29;20579;-80
2023/05/03 12:38:07;;;;;;;;;;;19.60;80.30;;;;;;4819782;29;19943;-79
2023/05/03 12:40:37;;;;;;;;;;;19.50;81.20;;;;;;4842779;29;20415;-80
2023/05/03 12:43:05;;;;;;;;;;;19.60;82.40;;;;;;4839065;29;19942;-79
2023/05/03 12:45:32;;;;;;;;;;;19.60;84.00;;;;;;4847115;29;19935;-80
2023/05/03 12:48:01;;;;;;;;;;;19.50;86.80;;;;;;4843787;29;19991;-79
2023/05/03 12:50:29;;;;;;;;;;;19.50;89.30;;;;;;4820391;29;20369;-79
2023/05/03 12:52:58;;;;;;;;;;;19.40;90.80;;;;;;4836507;29;20064;-80
2023/05/03 12:55:33;;;;;;;;;;;19.30;92.20;;;;;;4840723;29;19936;-80
2023/05/03 12:58:06;;;;;;;;;;;19.10;93.10;;;;;;4847792;29;19959;-77
2023/05/03 13:00:53;;;;;;;;;;;19.10;93.90;;;;;;4846686;29;20720;-80
2023/05/03 13:03:23;;;;;;;;;;;19.00;95.10;;;;;;4845518;29;19942;-79
2023/05/03 13:05:51;;;;;;;;;;;19.00;96.10;;;;;;4847660;29;22433;-80
2023/05/03 13:08:18;;;;;;;;;;;18.90;96.40;;;;;;4786551;29;19943;-80
2023/05/03 13:10:48;;;;;;;;;;;18.90;96.90;;;;;;4851479;29;19959;-80
2023/05/03 13:13:16;;;;;;;;;;;18.80;96.70;;;;;;4858823;29;20451;-78
2023/05/03 13:15:43;;;;;;;;;;;18.80;97.50;;;;;;4857444;29;19942;-80
2023/05/03 13:18:13;;;;;;;;;;;18.70;98.50;;;;;;4851993;29;19938;-80
2023/05/03 13:20:41;;;;;;;;;;;18.70;99.90;;;;;;4847509;29;19927;-79
2023/05/03 13:23:10;;;;;;;;;;;18.70;99.90;;;;;;4842180;29;19936;-80
2023/05/03 13:25:40;;;;;;;;;;;18.70;99.90;;;;;;4838179;29;19936;-80
2023/05/03 13:28:07;;;;;;;;;;;18.70;99.90;;;;;;4824317;29;19936;-79
2023/05/03 13:30:34;;;;;;;;;;;18.60;99.90;;;;;;4850416;29;19935;-80
2023/05/03 13:33:01;;;;;;;;;;;18.60;99.90;;;;;;4867090;29;19938;-80
2023/05/03 13:35:28;;;;;;;;;;;18.70;99.90;;;;;;4834236;29;19943;-78
2023/05/03 13:37:57;;;;;;;;;;;18.80;99.90;;;;;;4841742;29;19938;-79
2023/05/03 13:40:26;;;;;;;;;;;18.80;99.90;;;;;;4845392;29;19936;-80
2023/05/03 13:42:54;;;;;;;;;;;18.80;99.90;;;;;;4823167;29;19936;-77
2023/05/03 13:45:21;;;;;;;;;;;18.80;99.90;;;;;;4839243;29;19935;-79
2023/05/03 13:47:48;;;;;;;;;;;18.80;99.90;;;;;;4845347;29;19935;-80
2023/05/03 13:50:35;;;;;;;;;;;18.90;99.90;;;;;;4848833;29;19934;-79
2023/05/03 13:53:02;;;;;;;;;;;19.00;99.90;;;;;;4848561;29;19936;-76
2023/05/03 13:55:29;;;;;;;;;;;19.30;99.90;;;;;;4831977;29;19935;-80
2023/05/03 13:57:58;;;;;;;;;;;19.70;99.90;;;;;;4855209;29;19939;-80
2023/05/03 14:00:25;;;;;;;;;;;19.70;99.40;;;;;;4837689;29;19943;-79
2023/05/03 14:02:52;;;;;;;;;;;19.60;98.60;;;;;;4831588;29;19943;-79
2023/05/03 14:05:19;;;;;;;;;;;19.30;99.10;;;;;;4828128;29;19939;-79
2023/05/03 14:07:47;;;;;;;;;;;19.30;99.90;;;;;;4845562;29;19943;-79
2023/05/03 14:10:14;;;;;;;;;;;19.30;99.30;;;;;;4818055;29;19935;-79
2023/05/03 14:12:43;;;;;;;;;;;19.20;99.90;;;;;;4820923;29;19928;-79
2023/05/03 14:15:10;;;;;;;;;;;19.20;99.80;;;;;;4833841;29;19935;-79
2023/05/03 14:17:40;;;;;;;;;;;19.20;99.00;;;;;;4820463;29;19935;-78
2023/05/03 14:20:09;;;;;;;;;;;18.60;98.90;;;;;;4872869;29;19939;-78
2023/05/03 14:22:37;;;;;;;;;;;19.00;99.40;;;;;;4851289;29;19993;-79
2023/05/03 14:25:04;;;;;;;;;;;19.20;99.00;;;;;;4846104;29;19942;-79
2023/05/03 14:27:32;;;;;;;;;;;19.10;99.10;;;;;;4825101;29;19943;-79
2023/05/03 14:29:59;;;;;;;;;;;19.00;99.90;;;;;;4841409;29;20847;-77
2023/05/03 14:32:26;;;;;;;;;;;19.10;99.90;;;;;;4837711;29;22337;-79
2023/05/03 14:34:53;;;;;;;;;;;19.00;99.80;;;;;;4840488;29;20683;-79
2023/05/03 14:37:22;;;;;;;;;;;19.10;99.90;;;;;;4838184;29;20304;-80
2023/05/03 14:39:50;;;;;;;;;;;19.00;99.90;;;;;;4835907;29;19936;-80